createdAt,value
2022-08-11T00:00:43.182Z,18.54
2022-08-11T00:03:15.633Z,18.50
2022-08-11T00:05:57.518Z,18.46
2022-08-11T00:08:33.359Z,18.28
2022-08-11T00:11:08.545Z,18.45
2022-08-11T00:13:45.269Z,18.37
2022-08-11T00:16:24.751Z,18.35
2022-08-11T00:18:58.940Z,18.36
2022-08-11T00:21:54.571Z,18.21
2022-08-11T00:24:24.157Z,18.18
2022-08-11T00:26:55.577Z,18.30
2022-08-11T00:29:27.350Z,18.35
2022-08-11T00:32:01.907Z,18.32
2022-08-11T00:34:36.186Z,18.30
2022-08-11T00:37:10.004Z,18.20
2022-08-11T00:39:48.920Z,18.01
2022-08-11T00:42:48.251Z,18.16
2022-08-11T00:45:32.440Z,18.12
2022-08-11T00:48:19.746Z,18.10
2022-08-11T00:51:05.152Z,18.07
2022-08-11T00:54:14.066Z,18.07
2022-08-11T00:57:36.121Z,18.04
2022-08-11T01:00:24.394Z,17.88
2022-08-11T01:03:22.013Z,17.93
2022-08-11T01:06:18.271Z,17.89
2022-08-11T01:09:22.463Z,17.82
2022-08-11T01:12:09.577Z,17.77
2022-08-11T01:15:15.042Z,17.74
2022-08-11T01:18:14.439Z,17.71
2022-08-11T01:21:07.766Z,17.67
2022-08-11T01:24:19.559Z,17.62
2022-08-11T01:27:19.349Z,17.58
2022-08-11T01:30:10.178Z,17.55
2022-08-11T01:33:13.021Z,17.49
2022-08-11T01:36:20.656Z,17.51
2022-08-11T01:39:31.758Z,17.47
2022-08-11T01:42:55.829Z,17.43
2022-08-11T01:45:39.001Z,17.38
2022-08-11T01:48:30.762Z,17.38
2022-08-11T01:51:18.411Z,17.29
2022-08-11T01:54:09.872Z,17.38
2022-08-11T01:57:08.010Z,17.37
2022-08-11T01:59:48.689Z,17.37
2022-08-11T02:02:47.537Z,17.35
2022-08-11T02:05:37.250Z,17.32
2022-08-11T02:08:33.507Z,17.20
2022-08-11T02:11:35.063Z,17.26
2022-08-11T02:14:12.995Z,17.23
2022-08-11T02:17:15.474Z,17.20
2022-08-11T02:20:16.597Z,17.16
2022-08-11T02:24:05.099Z,17.11
2022-08-11T02:26:44.316Z,17.07
2022-08-11T02:29:46.832Z,17.00
2022-08-11T02:32:48.008Z,17.02
2022-08-11T02:35:32.796Z,16.97
2022-08-11T02:38:28.349Z,16.96
2022-08-11T02:41:32.072Z,16.94
2022-08-11T02:44:34.521Z,16.92
2022-08-11T02:47:17.989Z,16.89
2022-08-11T02:50:07.001Z,16.88
2022-08-11T02:53:06.745Z,16.85
2022-08-11T02:55:58.362Z,16.83
2022-08-11T02:59:08.798Z,16.84
2022-08-11T03:01:53.060Z,16.81
2022-08-11T03:04:51.297Z,16.80
2022-08-11T03:07:34.723Z,16.78
2022-08-11T03:10:44.757Z,16.76
2022-08-11T03:13:50.161Z,16.70
2022-08-11T03:16:48.428Z,16.63
2022-08-11T03:19:41.664Z,16.67
2022-08-11T03:22:22.126Z,16.65
2022-08-11T03:25:16.285Z,16.66
2022-08-11T03:28:04.217Z,16.61
2022-08-11T03:31:01.766Z,16.69
2022-08-11T03:34:06.694Z,16.70
2022-08-11T03:37:16.897Z,16.70
2022-08-11T03:40:38.480Z,16.68
2022-08-11T03:43:32.866Z,16.65
2022-08-11T03:46:09.110Z,16.64
2022-08-11T03:48:57.138Z,16.52
2022-08-11T03:51:51.970Z,16.61
2022-08-11T03:54:39.914Z,16.59
2022-08-11T03:57:23.718Z,16.56
2022-08-11T04:00:19.481Z,16.54
2022-08-11T04:02:50.773Z,16.52
2022-08-11T04:06:11.800Z,16.53
2022-08-11T04:09:07.928Z,16.53
2022-08-11T04:12:36.494Z,16.55
2022-08-11T04:15:55.841Z,16.57
2022-08-11T04:18:33.219Z,16.59
2022-08-11T04:21:26.707Z,16.61
2022-08-11T04:24:39.784Z,16.64
2022-08-11T04:27:52.695Z,16.68
2022-08-11T04:31:01.206Z,16.68
2022-08-11T04:33:53.818Z,16.64
2022-08-11T04:37:01.965Z,16.75
2022-08-11T04:39:55.592Z,16.78
2022-08-11T04:42:54.998Z,16.83
2022-08-11T04:45:40.492Z,16.86
2022-08-11T04:48:46.688Z,16.86
2022-08-11T04:51:43.062Z,16.99
2022-08-11T04:54:50.524Z,16.93
2022-08-11T04:58:00.820Z,17.14
2022-08-11T05:01:22.112Z,17.13
2022-08-11T05:04:40.158Z,17.28
2022-08-11T05:07:27.867Z,17.37
2022-08-11T05:10:19.675Z,17.40
2022-08-11T05:13:20.717Z,17.51
2022-08-11T05:16:14.241Z,17.63
2022-08-11T05:19:10.031Z,17.74
2022-08-11T05:22:04.414Z,17.84
2022-08-11T05:25:02.383Z,17.96
2022-08-11T05:28:04.115Z,18.06
2022-08-11T05:30:54.947Z,18.19
2022-08-11T05:34:15.765Z,18.33
2022-08-11T05:36:52.073Z,18.45
2022-08-11T05:39:45.266Z,18.56
2022-08-11T05:42:37.931Z,18.69
2022-08-11T05:46:03.430Z,18.73
2022-08-11T05:48:54.786Z,18.95
2022-08-11T05:51:55.438Z,19.07
2022-08-11T05:54:47.466Z,19.19
2022-08-11T05:57:48.345Z,19.31
2022-08-11T06:00:19.301Z,19.45
2022-08-11T06:02:57.592Z,19.59
2022-08-11T06:05:44.055Z,19.75
2022-08-11T06:08:15.949Z,19.85
2022-08-11T06:10:47.604Z,20.19
2022-08-11T06:13:21.356Z,21.15
2022-08-11T06:15:55.826Z,22.39
2022-08-11T06:18:29.571Z,23.36
2022-08-11T06:21:01.411Z,24.17
2022-08-11T06:23:33.596Z,24.75
2022-08-11T06:26:13.794Z,25.26
2022-08-11T06:28:47.134Z,25.60
2022-08-11T06:31:25.029Z,25.79
2022-08-11T06:34:27.318Z,25.83
2022-08-11T06:37:18.436Z,25.76
2022-08-11T06:40:01.299Z,25.54
2022-08-11T06:42:43.653Z,25.30
2022-08-11T06:45:34.436Z,24.99
2022-08-11T06:48:11.041Z,24.78
2022-08-11T06:51:08.626Z,24.56
2022-08-11T06:54:03.465Z,24.48
2022-08-11T06:57:26.412Z,24.33
2022-08-11T07:00:07.465Z,24.20
2022-08-11T07:03:03.169Z,24.20
2022-08-11T07:05:37.492Z,24.24
2022-08-11T07:08:49.254Z,24.33
2022-08-11T07:11:48.581Z,24.48
2022-08-11T07:14:45.616Z,24.66
2022-08-11T07:17:21.337Z,24.76
2022-08-11T07:20:15.917Z,24.86
2022-08-11T07:23:15.902Z,24.87
2022-08-11T07:26:11.301Z,24.86
2022-08-11T07:28:55.895Z,24.98
2022-08-11T07:31:50.453Z,25.15
2022-08-11T07:34:28.079Z,25.29
2022-08-11T07:37:04.308Z,25.48
2022-08-11T07:39:37.857Z,25.72
2022-08-11T07:42:12.669Z,26.01
2022-08-11T07:45:05.705Z,26.28
2022-08-11T07:47:56.661Z,26.56
2022-08-11T07:50:46.774Z,26.70
2022-08-11T07:53:19.019Z,26.83
2022-08-11T07:55:54.894Z,26.94
2022-08-11T07:58:53.197Z,27.09
2022-08-11T08:01:44.915Z,27.20
2022-08-11T08:04:36.945Z,27.29
2022-08-11T08:07:27.071Z,27.49
2022-08-11T08:10:18.372Z,27.70
2022-08-11T08:13:08.805Z,27.92
2022-08-11T08:16:00.179Z,28.11
2022-08-11T08:18:35.889Z,28.33
2022-08-11T08:21:14.687Z,28.52
2022-08-11T08:23:47.492Z,28.72
2022-08-11T08:26:48.299Z,28.87
2022-08-11T08:29:42.035Z,29.05
2022-08-11T08:32:16.276Z,29.19
2022-08-11T08:34:51.138Z,29.29
2022-08-11T08:37:46.240Z,29.37
2022-08-11T08:40:16.052Z,29.44
2022-08-11T08:42:55.120Z,29.50
2022-08-11T08:45:27.349Z,29.55
2022-08-11T08:48:02.354Z,29.70
2022-08-11T08:50:56.144Z,29.79
2022-08-11T08:53:32.942Z,29.85
2022-08-11T08:56:07.332Z,29.85
2022-08-11T08:58:41.512Z,29.89
2022-08-11T09:01:15.258Z,29.93
2022-08-11T09:04:07.019Z,29.96
2022-08-11T09:06:40.058Z,29.93
2022-08-11T09:09:12.296Z,29.86
2022-08-11T09:11:50.675Z,29.78
2022-08-11T09:14:53.984Z,29.98
2022-08-11T09:17:27.528Z,30.04
2022-08-11T09:20:29.196Z,29.96
2022-08-11T09:24:07.328Z,30.11
2022-08-11T09:26:33.695Z,30.14
2022-08-11T09:29:05.846Z,30.22
2022-08-11T09:31:40.335Z,30.28
2022-08-11T09:34:14.355Z,30.31
2022-08-11T09:37:04.954Z,30.26
2022-08-11T09:39:57.591Z,30.25
2022-08-11T09:42:49.213Z,30.32
2022-08-11T09:45:20.842Z,30.35
2022-08-11T09:47:52.623Z,30.36
2022-08-11T09:50:24.472Z,30.42
2022-08-11T09:53:36.611Z,30.27
2022-08-11T09:55:48.236Z,30.34
2022-08-11T09:58:41.555Z,30.43
2022-08-11T10:01:27.435Z,30.51
2022-08-11T10:04:05.637Z,30.64
2022-08-11T10:06:57.857Z,30.73
2022-08-11T10:10:08.539Z,30.79
2022-08-11T10:12:46.518Z,30.73
2022-08-11T10:15:35.183Z,30.77
2022-08-11T10:18:26.631Z,30.78
2022-08-11T10:21:05.877Z,30.97
2022-08-11T10:24:00.451Z,30.94
2022-08-11T10:26:52.025Z,30.80
2022-08-11T10:29:49.495Z,30.80
2022-08-11T10:32:57.586Z,30.86
2022-08-11T10:35:32.471Z,31.00
2022-08-11T10:38:08.983Z,31.12
2022-08-11T10:40:46.113Z,31.25
2022-08-11T10:43:59.300Z,31.13
2022-08-11T10:46:31.016Z,31.02
2022-08-11T10:49:02.867Z,31.08
2022-08-11T10:51:54.064Z,31.26
2022-08-11T10:54:50.371Z,31.30
2022-08-11T10:57:41.680Z,31.23
2022-08-11T11:00:16.311Z,31.20
2022-08-11T11:03:22.194Z,31.23
2022-08-11T11:06:28.836Z,31.34
2022-08-11T11:08:52.736Z,31.47
2022-08-11T11:11:47.148Z,31.70
2022-08-11T11:14:46.105Z,31.78
2022-08-11T11:17:56.229Z,31.57
2022-08-11T11:20:40.758Z,31.49
2022-08-11T11:23:17.067Z,31.35
2022-08-11T11:26:06.706Z,31.15
2022-08-11T11:28:55.458Z,31.36
2022-08-11T11:31:58.439Z,31.43
2022-08-11T11:35:08.927Z,31.49
2022-08-11T11:38:01.904Z,31.54
2022-08-11T11:40:37.453Z,31.60
2022-08-11T11:43:09.474Z,31.63
2022-08-11T11:45:42.121Z,31.60
2022-08-11T11:48:13.756Z,31.47
2022-08-11T11:50:45.314Z,31.44
2022-08-11T11:53:16.869Z,31.34
2022-08-11T11:55:48.645Z,31.33
2022-08-11T11:58:40.104Z,31.37
2022-08-11T12:01:16.098Z,31.31
2022-08-11T12:03:50.758Z,31.31
2022-08-11T12:06:24.108Z,31.33
2022-08-11T12:08:58.564Z,31.30
2022-08-11T12:11:49.837Z,31.33
2022-08-11T12:14:21.801Z,31.42
2022-08-11T12:16:56.269Z,31.42
2022-08-11T12:19:28.922Z,31.58
2022-08-11T12:22:26.341Z,31.68
2022-08-11T12:25:16.101Z,31.68
2022-08-11T12:27:47.713Z,31.69
2022-08-11T12:30:19.324Z,31.77
2022-08-11T12:32:51.770Z,31.72
2022-08-11T12:35:23.246Z,31.80
2022-08-11T12:38:04.909Z,31.92
2022-08-11T12:41:16.832Z,32.01
2022-08-11T12:44:08.227Z,32.11
2022-08-11T12:46:44.549Z,32.14
2022-08-11T12:49:43.202Z,32.10
2022-08-11T12:52:26.208Z,32.02
2022-08-11T12:55:06.622Z,31.97
2022-08-11T12:58:06.885Z,31.95
2022-08-11T13:00:57.334Z,31.77
2022-08-11T13:03:52.478Z,31.71
2022-08-11T13:06:29.003Z,31.76
2022-08-11T13:09:01.651Z,31.80
2022-08-11T13:11:55.893Z,31.88
2022-08-11T13:14:32.854Z,31.89
2022-08-11T13:17:43.775Z,31.85
2022-08-11T13:20:20.040Z,31.77
2022-08-11T13:22:53.872Z,31.79
2022-08-11T13:25:31.593Z,31.81
2022-08-11T13:28:04.781Z,31.75
2022-08-11T13:30:55.571Z,31.71
2022-08-11T13:33:27.009Z,31.64
2022-08-11T13:36:01.366Z,31.63
2022-08-11T13:38:33.907Z,31.66
2022-08-11T13:41:28.427Z,31.73
2022-08-11T13:44:02.656Z,31.72
2022-08-11T13:46:34.872Z,31.67
2022-08-11T13:49:10.851Z,31.73
2022-08-11T13:51:43.415Z,31.91
2022-08-11T13:54:36.815Z,31.93
2022-08-11T13:57:13.596Z,31.94
2022-08-11T14:00:23.378Z,31.75
2022-08-11T14:02:58.169Z,31.90
2022-08-11T14:05:37.669Z,31.92
2022-08-11T14:08:38.096Z,32.03
2022-08-11T14:12:22.060Z,32.18
2022-08-11T14:14:25.247Z,32.18
2022-08-11T14:16:57.932Z,32.07
2022-08-11T14:19:32.761Z,31.99
2022-08-11T14:22:09.199Z,31.81
2022-08-11T14:24:42.968Z,31.92
2022-08-11T14:28:30.519Z,31.83
2022-08-11T14:30:26.583Z,31.78
2022-08-11T14:32:59.896Z,31.77
2022-08-11T14:35:31.515Z,31.68
2022-08-11T14:38:05.386Z,31.85
2022-08-11T14:40:56.557Z,31.93
2022-08-11T14:44:05.848Z,31.99
2022-08-11T14:46:57.861Z,31.99
2022-08-11T14:49:30.194Z,31.95
2022-08-11T14:52:06.625Z,31.90
2022-08-11T14:54:56.730Z,31.95
2022-08-11T14:57:55.408Z,32.03
2022-08-11T15:00:22.623Z,31.98
2022-08-11T15:03:10.325Z,31.90
2022-08-11T15:05:57.555Z,31.81
2022-08-11T15:08:52.113Z,31.83
2022-08-11T15:11:44.726Z,31.80
2022-08-11T15:14:36.347Z,31.72
2022-08-11T15:17:10.074Z,31.65
2022-08-11T15:20:04.061Z,31.54
2022-08-11T15:22:54.298Z,31.73
2022-08-11T15:25:27.429Z,31.75
2022-08-11T15:28:18.667Z,31.79
2022-08-11T15:31:14.089Z,31.85
2022-08-11T15:34:06.228Z,31.81
2022-08-11T15:36:57.641Z,31.75
2022-08-11T15:39:35.651Z,31.71
2022-08-11T15:42:35.810Z,31.66
2022-08-11T15:45:27.914Z,31.59
2022-08-11T15:48:10.684Z,31.52
2022-08-11T15:50:48.403Z,31.46
2022-08-11T15:53:27.127Z,31.40
2022-08-11T15:56:00.977Z,31.38
2022-08-11T15:59:33.657Z,31.48
2022-08-11T16:02:07.795Z,31.44
2022-08-11T16:04:42.565Z,31.36
2022-08-11T16:07:26.715Z,31.34
2022-08-11T16:10:09.614Z,31.30
2022-08-11T16:13:09.963Z,31.19
2022-08-11T16:16:05.981Z,31.27
2022-08-11T16:18:52.078Z,31.24
2022-08-11T16:21:35.027Z,31.07
2022-08-11T16:25:58.274Z,30.92
2022-08-11T16:27:12.926Z,30.84
2022-08-11T16:29:47.854Z,30.80
2022-08-11T16:32:23.137Z,30.73
2022-08-11T16:35:17.461Z,30.69
2022-08-11T16:38:10.702Z,30.57
2022-08-11T16:40:43.905Z,30.49
2022-08-11T16:43:36.955Z,30.46
2022-08-11T16:46:38.343Z,30.38
2022-08-11T16:49:18.109Z,30.34
2022-08-11T16:51:49.456Z,30.36
2022-08-11T16:54:21.003Z,30.28
2022-08-11T16:56:54.057Z,30.12
2022-08-11T16:59:36.141Z,30.16
2022-08-11T17:02:35.741Z,30.02
2022-08-11T17:05:30.449Z,30.03
2022-08-11T17:08:24.298Z,29.98
2022-08-11T17:11:18.928Z,29.79
2022-08-11T17:13:54.819Z,29.83
2022-08-11T17:16:34.214Z,29.74
2022-08-11T17:20:38.264Z,29.63
2022-08-11T17:22:37.234Z,29.48
2022-08-11T17:25:10.154Z,29.21
2022-08-11T17:27:43.472Z,29.25
2022-08-11T17:30:15.649Z,29.07
2022-08-11T17:33:09.289Z,29.13
2022-08-11T17:35:44.405Z,29.02
2022-08-11T17:38:19.340Z,28.91
2022-08-11T17:41:23.027Z,28.83
2022-08-11T17:44:15.265Z,28.74
2022-08-11T17:47:07.503Z,28.63
2022-08-11T17:49:40.307Z,28.39
2022-08-11T17:52:35.227Z,28.31
2022-08-11T17:55:52.530Z,28.39
2022-08-11T17:58:37.980Z,28.30
2022-08-11T18:01:11.602Z,28.22
2022-08-11T18:03:56.463Z,27.96
2022-08-11T18:06:34.174Z,28.03
2022-08-11T18:09:30.809Z,27.96
2022-08-11T18:12:24.568Z,27.86
2022-08-11T18:15:15.980Z,27.72
2022-08-11T18:18:06.910Z,27.63
2022-08-11T18:20:56.804Z,27.51
2022-08-11T18:23:47.466Z,27.43
2022-08-11T18:26:41.194Z,27.25
2022-08-11T18:29:41.914Z,27.15
2022-08-11T18:32:49.166Z,27.03
2022-08-11T18:35:41.441Z,26.88
2022-08-11T18:38:35.504Z,26.63
2022-08-11T18:41:28.565Z,26.69
2022-08-11T18:44:23.489Z,26.57
2022-08-11T18:47:15.473Z,26.43
2022-08-11T18:50:11.941Z,26.27
2022-08-11T18:53:09.619Z,26.19
2022-08-11T18:56:02.812Z,26.07
2022-08-11T18:58:55.650Z,25.96
2022-08-11T19:01:47.200Z,25.82
2022-08-11T19:04:38.190Z,25.63
2022-08-11T19:07:31.234Z,25.55
2022-08-11T19:10:23.072Z,25.40
2022-08-11T19:13:14.475Z,25.23
2022-08-11T19:16:05.947Z,25.08
2022-08-11T19:18:58.029Z,24.90
2022-08-11T19:21:49.088Z,24.82
2022-08-11T19:24:40.198Z,24.67
2022-08-11T19:27:32.580Z,24.57
2022-08-11T19:30:23.056Z,24.51
2022-08-11T19:33:13.321Z,24.39
2022-08-11T19:36:05.203Z,24.28
2022-08-11T19:38:56.664Z,24.16
2022-08-11T19:41:56.132Z,24.06
2022-08-11T19:44:49.238Z,23.93
2022-08-11T19:47:40.513Z,23.88
2022-08-11T19:50:32.246Z,23.77
2022-08-11T19:53:24.551Z,23.75
2022-08-11T19:56:15.035Z,23.51
2022-08-11T19:59:05.820Z,23.61
2022-08-11T20:02:12.843Z,23.58
2022-08-11T20:05:04.338Z,23.46
2022-08-11T20:07:56.182Z,23.39
2022-08-11T20:10:49.312Z,23.32
2022-08-11T20:13:41.643Z,23.20
2022-08-11T20:16:34.532Z,23.12
2022-08-11T20:19:54.977Z,23.03
2022-08-11T20:22:37.444Z,22.91
2022-08-11T20:25:29.512Z,22.82
2022-08-11T20:28:21.777Z,22.77
2022-08-11T20:31:12.699Z,22.70
2022-08-11T20:34:04.130Z,22.68
2022-08-11T20:36:58.173Z,22.65
2022-08-11T20:39:50.856Z,22.61
2022-08-11T20:42:42.677Z,22.57
2022-08-11T20:45:34.376Z,22.48
2022-08-11T20:48:25.984Z,22.49
2022-08-11T20:51:17.373Z,22.46
2022-08-11T20:54:08.434Z,22.41
2022-08-11T20:57:02.288Z,22.15
2022-08-11T20:59:56.960Z,22.26
2022-08-11T21:02:50.076Z,22.21
2022-08-11T21:06:10.177Z,22.17
2022-08-11T21:08:56.253Z,21.91
2022-08-11T21:11:47.455Z,22.06
2022-08-11T21:14:40.702Z,22.03
2022-08-11T21:17:37.360Z,21.97
2022-08-11T21:20:50.215Z,21.90
2022-08-11T21:23:41.801Z,21.78
2022-08-11T21:26:36.970Z,21.77
2022-08-11T21:29:28.720Z,21.69
2022-08-11T21:32:19.599Z,21.65
2022-08-11T21:35:10.962Z,21.53
2022-08-11T21:38:02.365Z,21.53
2022-08-11T21:41:00.718Z,21.46
2022-08-11T21:43:51.902Z,21.41
2022-08-11T21:46:42.570Z,21.35
2022-08-11T21:49:33.801Z,21.31
2022-08-11T21:52:24.593Z,21.24
2022-08-11T21:55:16.453Z,21.18
2022-08-11T21:58:06.781Z,21.08
2022-08-11T22:00:57.124Z,20.99
2022-08-11T22:03:50.233Z,20.98
2022-08-11T22:06:41.136Z,20.88
2022-08-11T22:09:31.133Z,20.82
2022-08-11T22:12:29.497Z,20.76
2022-08-11T22:15:26.231Z,20.67
2022-08-11T22:18:20.558Z,20.64
2022-08-11T22:21:11.422Z,20.58
2022-08-11T22:24:09.037Z,20.52
2022-08-11T22:26:59.794Z,20.50
2022-08-11T22:29:51.466Z,20.44
2022-08-11T22:32:41.849Z,20.40
2022-08-11T22:35:32.308Z,20.34
2022-08-11T22:38:23.127Z,20.30
2022-08-11T22:41:13.964Z,20.09
2022-08-11T22:44:04.045Z,20.01
2022-08-11T22:46:54.905Z,19.98
2022-08-11T22:49:57.214Z,19.96
2022-08-11T22:52:49.827Z,20.12
2022-08-11T22:55:41.567Z,20.02
2022-08-11T22:58:33.877Z,19.97
2022-08-11T23:01:24.635Z,19.94
2022-08-11T23:04:15.262Z,19.98
2022-08-11T23:07:06.816Z,19.75
2022-08-11T23:09:59.174Z,19.91
2022-08-11T23:12:49.293Z,19.68
2022-08-11T23:15:40.837Z,19.75
2022-08-11T23:18:32.745Z,19.84
2022-08-11T23:21:22.782Z,19.85
2022-08-11T23:24:12.925Z,19.78
2022-08-11T23:27:03.683Z,19.78
2022-08-11T23:29:54.380Z,19.76
2022-08-11T23:32:45.947Z,19.75
2022-08-11T23:35:53.986Z,19.73
2022-08-11T23:38:47.258Z,19.70
2022-08-11T23:41:37.779Z,19.48
2022-08-11T23:44:28.379Z,19.44
2022-08-11T23:47:19.698Z,19.55
2022-08-11T23:50:10.598Z,19.43
2022-08-11T23:53:06.708Z,19.29
2022-08-11T23:55:56.928Z,19.40
2022-08-11T23:58:47.150Z,19.26
